sensor_id;sensor_type;location;lat;lon;timestamp;P1;durP1;ratioP1;P2;durP2;ratioP2
2662;SDS011;49701;48.072;7.800;2022-10-16T00:01:17;5.60;;;2.50;;
2662;SDS011;49701;48.072;7.800;2022-10-16T00:03:44;7.20;;;2.40;;
2662;SDS011;49701;48.072;7.800;2022-10-16T00:06:11;8.13;;;2.97;;
2662;SDS011;49701;48.072;7.800;2022-10-16T00:08:38;10.23;;;2.70;;
2662;SDS011;49701;48.072;7.800;2022-10-16T00:11:11;5.55;;;2.38;;
2662;SDS011;49701;48.072;7.800;2022-10-16T00:13:42;5.65;;;2.40;;
2662;SDS011;49701;48.072;7.800;2022-10-16T00:16:09;3.63;;;2.53;;
2662;SDS011;49701;48.072;7.800;2022-10-16T00:18:35;4.45;;;2.80;;
2662;SDS011;49701;48.072;7.800;2022-10-16T00:21:05;7.60;;;3.10;;
2662;SDS011;49701;48.072;7.800;2022-10-16T00:23:42;6.90;;;3.75;;
2662;SDS011;49701;48.072;7.800;2022-10-16T00:26:09;9.65;;;3.50;;
2662;SDS011;49701;48.072;7.800;2022-10-16T00:28:37;6.18;;;3.80;;
2662;SDS011;49701;48.072;7.800;2022-10-16T00:31:03;6.45;;;2.90;;
2662;SDS011;49701;48.072;7.800;2022-10-16T00:33:30;4.40;;;2.85;;
2662;SDS011;49701;48.072;7.800;2022-10-16T00:35:57;5.43;;;2.63;;
2662;SDS011;49701;48.072;7.800;2022-10-16T00:38:23;4.90;;;2.75;;
2662;SDS011;49701;48.072;7.800;2022-10-16T00:40:49;7.90;;;2.60;;
2662;SDS011;49701;48.072;7.800;2022-10-16T00:46:45;4.43;;;2.58;;
2662;SDS011;49701;48.072;7.800;2022-10-16T00:49:10;12.85;;;3.05;;
2662;SDS011;49701;48.072;7.800;2022-10-16T00:51:47;4.47;;;2.53;;
2662;SDS011;49701;48.072;7.800;2022-10-16T00:56:52;4.85;;;2.70;;
2662;SDS011;49701;48.072;7.800;2022-10-16T00:59:20;3.03;;;2.67;;
2662;SDS011;49701;48.072;7.800;2022-10-16T01:01:51;4.45;;;2.67;;
2662;SDS011;49701;48.072;7.800;2022-10-16T01:04:17;6.68;;;2.85;;
2662;SDS011;49701;48.072;7.800;2022-10-16T01:06:57;6.45;;;2.90;;
2662;SDS011;49701;48.072;7.800;2022-10-16T01:12:32;10.27;;;2.80;;
2662;SDS011;49701;48.072;7.800;2022-10-16T01:15:29;5.22;;;3.05;;
2662;SDS011;49701;48.072;7.800;2022-10-16T01:20:39;5.13;;;3.00;;
2662;SDS011;49701;48.072;7.800;2022-10-16T01:23:14;8.73;;;3.22;;
2662;SDS011;49701;48.072;7.800;2022-10-16T01:31:32;9.20;;;3.35;;
2662;SDS011;49701;48.072;7.800;2022-10-16T01:34:05;8.52;;;3.80;;
2662;SDS011;49701;48.072;7.800;2022-10-16T01:36:55;6.60;;;3.60;;
2662;SDS011;49701;48.072;7.800;2022-10-16T01:39:31;5.93;;;3.67;;
2662;SDS011;49701;48.072;7.800;2022-10-16T01:42:00;7.32;;;3.50;;
2662;SDS011;49701;48.072;7.800;2022-10-16T01:44:33;4.63;;;3.60;;
2662;SDS011;49701;48.072;7.800;2022-10-16T01:47:01;8.65;;;3.58;;
2662;SDS011;49701;48.072;7.800;2022-10-16T01:49:28;7.35;;;3.25;;
2662;SDS011;49701;48.072;7.800;2022-10-16T01:51:57;7.05;;;3.03;;
2662;SDS011;49701;48.072;7.800;2022-10-16T01:54:27;7.40;;;3.42;;
2662;SDS011;49701;48.072;7.800;2022-10-16T01:56:56;6.63;;;2.80;;
2662;SDS011;49701;48.072;7.800;2022-10-16T01:59:23;6.80;;;2.65;;
2662;SDS011;49701;48.072;7.800;2022-10-16T02:01:55;6.85;;;2.75;;
2662;SDS011;49701;48.072;7.800;2022-10-16T02:04:29;5.18;;;2.13;;
2662;SDS011;49701;48.072;7.800;2022-10-16T02:07:04;8.68;;;2.53;;
2662;SDS011;49701;48.072;7.800;2022-10-16T02:09:32;9.25;;;2.40;;
2662;SDS011;49701;48.072;7.800;2022-10-16T02:11:59;5.60;;;2.40;;
2662;SDS011;49701;48.072;7.800;2022-10-16T02:14:29;5.18;;;2.38;;
2662;SDS011;49701;48.072;7.800;2022-10-16T02:16:55;7.03;;;2.88;;
2662;SDS011;49701;48.072;7.800;2022-10-16T02:19:21;7.45;;;2.70;;
2662;SDS011;49701;48.072;7.800;2022-10-16T02:24:26;6.95;;;2.65;;
2662;SDS011;49701;48.072;7.800;2022-10-16T02:29:46;5.72;;;2.80;;
2662;SDS011;49701;48.072;7.800;2022-10-16T02:32:17;4.00;;;2.75;;
2662;SDS011;49701;48.072;7.800;2022-10-16T02:34:48;3.22;;;2.70;;
2662;SDS011;49701;48.072;7.800;2022-10-16T02:37:15;3.63;;;2.42;;
2662;SDS011;49701;48.072;7.800;2022-10-16T02:39:42;5.90;;;2.50;;
2662;SDS011;49701;48.072;7.800;2022-10-16T02:42:11;6.93;;;2.67;;
2662;SDS011;49701;48.072;7.800;2022-10-16T02:44:37;4.38;;;2.60;;
2662;SDS011;49701;48.072;7.800;2022-10-16T02:47:03;4.57;;;2.75;;
2662;SDS011;49701;48.072;7.800;2022-10-16T02:49:29;7.57;;;2.70;;
2662;SDS011;49701;48.072;7.800;2022-10-16T02:51:54;5.88;;;2.60;;
2662;SDS011;49701;48.072;7.800;2022-10-16T02:54:20;4.47;;;2.63;;
2662;SDS011;49701;48.072;7.800;2022-10-16T02:56:45;4.22;;;2.55;;
2662;SDS011;49701;48.072;7.800;2022-10-16T02:59:11;8.68;;;3.03;;
2662;SDS011;49701;48.072;7.800;2022-10-16T03:01:36;5.20;;;2.78;;
2662;SDS011;49701;48.072;7.800;2022-10-16T03:04:02;7.05;;;2.90;;
2662;SDS011;49701;48.072;7.800;2022-10-16T03:06:28;8.45;;;2.47;;
2662;SDS011;49701;48.072;7.800;2022-10-16T03:08:53;5.40;;;2.40;;
2662;SDS011;49701;48.072;7.800;2022-10-16T03:11:19;8.05;;;2.10;;
2662;SDS011;49701;48.072;7.800;2022-10-16T03:13:45;6.45;;;2.92;;
2662;SDS011;49701;48.072;7.800;2022-10-16T03:16:10;9.75;;;2.70;;
2662;SDS011;49701;48.072;7.800;2022-10-16T03:18:36;5.47;;;2.38;;
2662;SDS011;49701;48.072;7.800;2022-10-16T03:21:02;3.78;;;2.78;;
2662;SDS011;49701;48.072;7.800;2022-10-16T03:23:28;4.70;;;2.53;;
2662;SDS011;49701;48.072;7.800;2022-10-16T03:25:53;5.30;;;3.03;;
2662;SDS011;49701;48.072;7.800;2022-10-16T03:28:19;10.82;;;2.58;;
2662;SDS011;49701;48.072;7.800;2022-10-16T03:30:45;4.20;;;2.75;;
2662;SDS011;49701;48.072;7.800;2022-10-16T03:33:11;4.70;;;2.58;;
2662;SDS011;49701;48.072;7.800;2022-10-16T03:35:36;7.95;;;2.50;;
2662;SDS011;49701;48.072;7.800;2022-10-16T03:38:02;9.88;;;3.38;;
2662;SDS011;49701;48.072;7.800;2022-10-16T03:40:28;7.95;;;4.07;;
2662;SDS011;49701;48.072;7.800;2022-10-16T03:42:57;8.02;;;3.50;;
2662;SDS011;49701;48.072;7.800;2022-10-16T03:45:23;10.65;;;3.58;;
2662;SDS011;49701;48.072;7.800;2022-10-16T03:47:49;7.95;;;3.80;;
2662;SDS011;49701;48.072;7.800;2022-10-16T03:50:14;9.38;;;3.60;;
2662;SDS011;49701;48.072;7.800;2022-10-16T03:52:40;5.18;;;3.60;;
2662;SDS011;49701;48.072;7.800;2022-10-16T03:55:06;8.30;;;3.60;;
2662;SDS011;49701;48.072;7.800;2022-10-16T03:57:32;5.35;;;3.25;;
2662;SDS011;49701;48.072;7.800;2022-10-16T03:59:58;8.63;;;3.42;;
2662;SDS011;49701;48.072;7.800;2022-10-16T04:02:24;8.68;;;3.55;;
2662;SDS011;49701;48.072;7.800;2022-10-16T04:04:49;6.78;;;3.80;;
2662;SDS011;49701;48.072;7.800;2022-10-16T04:07:15;8.50;;;3.38;;
2662;SDS011;49701;48.072;7.800;2022-10-16T04:09:40;5.78;;;3.45;;
2662;SDS011;49701;48.072;7.800;2022-10-16T04:12:06;4.43;;;3.58;;
2662;SDS011;49701;48.072;7.800;2022-10-16T04:14:32;7.88;;;3.78;;
2662;SDS011;49701;48.072;7.800;2022-10-16T04:16:58;6.85;;;3.80;;
2662;SDS011;49701;48.072;7.800;2022-10-16T04:19:23;6.80;;;3.28;;
2662;SDS011;49701;48.072;7.800;2022-10-16T04:21:49;5.30;;;3.55;;
2662;SDS011;49701;48.072;7.800;2022-10-16T04:24:14;10.55;;;3.83;;
2662;SDS011;49701;48.072;7.800;2022-10-16T04:26:40;8.38;;;4.32;;
2662;SDS011;49701;48.072;7.800;2022-10-16T04:29:06;6.15;;;3.90;;
2662;SDS011;49701;48.072;7.800;2022-10-16T04:31:32;10.10;;;4.00;;
2662;SDS011;49701;48.072;7.800;2022-10-16T04:33:58;8.95;;;4.97;;
2662;SDS011;49701;48.072;7.800;2022-10-16T04:36:23;8.75;;;3.97;;
2662;SDS011;49701;48.072;7.800;2022-10-16T04:38:49;5.97;;;3.15;;
2662;SDS011;49701;48.072;7.800;2022-10-16T04:41:14;8.75;;;2.72;;
2662;SDS011;49701;48.072;7.800;2022-10-16T04:43:40;5.47;;;3.22;;
2662;SDS011;49701;48.072;7.800;2022-10-16T04:46:05;4.50;;;2.63;;
2662;SDS011;49701;48.072;7.800;2022-10-16T04:48:31;4.70;;;2.67;;
2662;SDS011;49701;48.072;7.800;2022-10-16T04:50:57;6.68;;;2.60;;
2662;SDS011;49701;48.072;7.800;2022-10-16T04:53:22;7.93;;;2.65;;
2662;SDS011;49701;48.072;7.800;2022-10-16T04:55:48;9.73;;;3.70;;
2662;SDS011;49701;48.072;7.800;2022-10-16T04:58:14;8.90;;;3.10;;
2662;SDS011;49701;48.072;7.800;2022-10-16T05:00:40;7.88;;;2.90;;
2662;SDS011;49701;48.072;7.800;2022-10-16T05:03:05;8.48;;;3.47;;
2662;SDS011;49701;48.072;7.800;2022-10-16T05:05:33;8.88;;;3.50;;
2662;SDS011;49701;48.072;7.800;2022-10-16T05:07:59;7.03;;;3.50;;
2662;SDS011;49701;48.072;7.800;2022-10-16T05:10:25;7.90;;;3.80;;
2662;SDS011;49701;48.072;7.800;2022-10-16T05:12:51;10.52;;;3.60;;
2662;SDS011;49701;48.072;7.800;2022-10-16T05:15:16;5.28;;;3.35;;
2662;SDS011;49701;48.072;7.800;2022-10-16T05:17:43;6.05;;;3.20;;
2662;SDS011;49701;48.072;7.800;2022-10-16T05:20:09;8.18;;;3.75;;
2662;SDS011;49701;48.072;7.800;2022-10-16T05:22:34;5.20;;;3.70;;
2662;SDS011;49701;48.072;7.800;2022-10-16T05:25:00;8.18;;;3.80;;
2662;SDS011;49701;48.072;7.800;2022-10-16T05:27:26;6.55;;;3.72;;
2662;SDS011;49701;48.072;7.800;2022-10-16T05:29:51;7.40;;;3.80;;
2662;SDS011;49701;48.072;7.800;2022-10-16T05:32:17;6.00;;;3.65;;
2662;SDS011;49701;48.072;7.800;2022-10-16T05:34:43;6.72;;;3.67;;
2662;SDS011;49701;48.072;7.800;2022-10-16T05:37:10;8.32;;;3.97;;
2662;SDS011;49701;48.072;7.800;2022-10-16T05:39:36;4.72;;;3.40;;
2662;SDS011;49701;48.072;7.800;2022-10-16T05:42:02;4.90;;;3.35;;
2662;SDS011;49701;48.072;7.800;2022-10-16T05:44:29;8.82;;;3.72;;
2662;SDS011;49701;48.072;7.800;2022-10-16T05:46:54;5.07;;;3.38;;
2662;SDS011;49701;48.072;7.800;2022-10-16T05:49:20;7.15;;;3.60;;
2662;SDS011;49701;48.072;7.800;2022-10-16T05:51:45;9.50;;;4.00;;
2662;SDS011;49701;48.072;7.800;2022-10-16T05:54:11;5.03;;;3.65;;
2662;SDS011;49701;48.072;7.800;2022-10-16T05:56:37;11.07;;;3.65;;
